sensor_id;sensor_type;location;lat;lon;timestamp;P1;durP1;ratioP1;P2;durP2;ratioP2
2850;SDS011;1433;49.976;8.342;2023-02-15T00:01:49;53.10;;;34.20;;
2850;SDS011;1433;49.976;8.342;2023-02-15T00:04:16;54.83;;;34.43;;
2850;SDS011;1433;49.976;8.342;2023-02-15T00:06:45;51.20;;;36.90;;
2850;SDS011;1433;49.976;8.342;2023-02-15T00:09:11;59.10;;;37.30;;
2850;SDS011;1433;49.976;8.342;2023-02-15T00:11:38;52.10;;;36.87;;
2850;SDS011;1433;49.976;8.342;2023-02-15T00:14:06;58.17;;;37.30;;
2850;SDS011;1433;49.976;8.342;2023-02-15T00:16:36;57.50;;;37.50;;
2850;SDS011;1433;49.976;8.342;2023-02-15T00:19:04;55.10;;;37.80;;
2850;SDS011;1433;49.976;8.342;2023-02-15T00:21:32;70.17;;;38.20;;
2850;SDS011;1433;49.976;8.342;2023-02-15T00:24:00;65.67;;;41.27;;
2850;SDS011;1433;49.976;8.342;2023-02-15T00:26:29;59.43;;;38.30;;
2850;SDS011;1433;49.976;8.342;2023-02-15T00:28:56;58.30;;;38.13;;
2850;SDS011;1433;49.976;8.342;2023-02-15T00:31:29;56.60;;;36.00;;
2850;SDS011;1433;49.976;8.342;2023-02-15T00:34:04;53.50;;;34.80;;
2850;SDS011;1433;49.976;8.342;2023-02-15T00:36:34;53.70;;;35.27;;
2850;SDS011;1433;49.976;8.342;2023-02-15T00:39:01;46.77;;;33.70;;
2850;SDS011;1433;49.976;8.342;2023-02-15T00:41:28;48.20;;;32.93;;
2850;SDS011;1433;49.976;8.342;2023-02-15T00:43:54;59.87;;;36.07;;
2850;SDS011;1433;49.976;8.342;2023-02-15T00:46:21;60.83;;;37.50;;
2850;SDS011;1433;49.976;8.342;2023-02-15T00:48:48;55.77;;;36.50;;
2850;SDS011;1433;49.976;8.342;2023-02-15T00:51:14;63.17;;;39.30;;
2850;SDS011;1433;49.976;8.342;2023-02-15T00:53:42;51.50;;;35.87;;
2850;SDS011;1433;49.976;8.342;2023-02-15T00:56:10;53.73;;;35.90;;
2850;SDS011;1433;49.976;8.342;2023-02-15T00:58:37;54.63;;;35.43;;
2850;SDS011;1433;49.976;8.342;2023-02-15T01:01:04;45.80;;;31.03;;
2850;SDS011;1433;49.976;8.342;2023-02-15T01:03:33;58.50;;;35.90;;
2850;SDS011;1433;49.976;8.342;2023-02-15T01:06:01;54.23;;;36.17;;
2850;SDS011;1433;49.976;8.342;2023-02-15T01:08:29;51.60;;;32.43;;
2850;SDS011;1433;49.976;8.342;2023-02-15T01:10:56;47.80;;;33.60;;
2850;SDS011;1433;49.976;8.342;2023-02-15T01:13:22;47.83;;;33.50;;
2850;SDS011;1433;49.976;8.342;2023-02-15T01:15:55;52.03;;;33.80;;
2850;SDS011;1433;49.976;8.342;2023-02-15T01:18:21;55.40;;;36.23;;
2850;SDS011;1433;49.976;8.342;2023-02-15T01:20:48;56.90;;;37.40;;
2850;SDS011;1433;49.976;8.342;2023-02-15T01:23:15;60.50;;;36.60;;
2850;SDS011;1433;49.976;8.342;2023-02-15T01:25:41;51.97;;;34.80;;
2850;SDS011;1433;49.976;8.342;2023-02-15T01:28:09;54.60;;;35.97;;
2850;SDS011;1433;49.976;8.342;2023-02-15T01:30:36;54.30;;;32.27;;
2850;SDS011;1433;49.976;8.342;2023-02-15T01:33:02;44.20;;;31.47;;
2850;SDS011;1433;49.976;8.342;2023-02-15T01:35:30;45.27;;;31.30;;
2850;SDS011;1433;49.976;8.342;2023-02-15T01:37:57;48.40;;;33.53;;
2850;SDS011;1433;49.976;8.342;2023-02-15T01:40:23;50.53;;;35.87;;
2850;SDS011;1433;49.976;8.342;2023-02-15T01:42:54;51.30;;;35.37;;
2850;SDS011;1433;49.976;8.342;2023-02-15T01:48:04;49.13;;;33.70;;
2850;SDS011;1433;49.976;8.342;2023-02-15T01:50:44;54.67;;;34.30;;
2850;SDS011;1433;49.976;8.342;2023-02-15T01:53:17;52.87;;;36.70;;
2850;SDS011;1433;49.976;8.342;2023-02-15T01:55:52;50.77;;;33.50;;
2850;SDS011;1433;49.976;8.342;2023-02-15T01:58:31;45.43;;;31.17;;
2850;SDS011;1433;49.976;8.342;2023-02-15T02:00:59;49.63;;;33.60;;
2850;SDS011;1433;49.976;8.342;2023-02-15T02:06:24;49.10;;;33.53;;
2850;SDS011;1433;49.976;8.342;2023-02-15T02:08:55;53.20;;;33.23;;
2850;SDS011;1433;49.976;8.342;2023-02-15T02:11:22;48.30;;;32.80;;
2850;SDS011;1433;49.976;8.342;2023-02-15T02:13:49;53.07;;;34.90;;
2850;SDS011;1433;49.976;8.342;2023-02-15T02:19:19;43.40;;;31.20;;
2850;SDS011;1433;49.976;8.342;2023-02-15T02:35:00;46.07;;;32.10;;
2850;SDS011;1433;49.976;8.342;2023-02-15T02:40:55;50.63;;;33.27;;
2850;SDS011;1433;49.976;8.342;2023-02-15T02:46:10;48.10;;;31.90;;
2850;SDS011;1433;49.976;8.342;2023-02-15T02:48:43;45.13;;;29.50;;
2850;SDS011;1433;49.976;8.342;2023-02-15T02:51:11;49.27;;;32.87;;
2850;SDS011;1433;49.976;8.342;2023-02-15T02:53:41;44.93;;;31.47;;
2850;SDS011;1433;49.976;8.342;2023-02-15T02:56:13;44.33;;;30.27;;
2850;SDS011;1433;49.976;8.342;2023-02-15T02:58:55;50.63;;;32.83;;
2850;SDS011;1433;49.976;8.342;2023-02-15T03:04:15;52.23;;;30.53;;
2850;SDS011;1433;49.976;8.342;2023-02-15T03:06:55;51.03;;;32.53;;
2850;SDS011;1433;49.976;8.342;2023-02-15T03:09:38;46.43;;;30.33;;
2850;SDS011;1433;49.976;8.342;2023-02-15T03:12:22;49.80;;;31.73;;
2850;SDS011;1433;49.976;8.342;2023-02-15T03:15:06;47.10;;;30.73;;
2850;SDS011;1433;49.976;8.342;2023-02-15T03:17:43;46.50;;;30.20;;
2850;SDS011;1433;49.976;8.342;2023-02-15T03:20:28;50.37;;;30.70;;
2850;SDS011;1433;49.976;8.342;2023-02-15T03:23:01;46.00;;;31.70;;
2850;SDS011;1433;49.976;8.342;2023-02-15T03:25:33;41.20;;;31.53;;
2850;SDS011;1433;49.976;8.342;2023-02-15T03:28:05;47.10;;;32.77;;
2850;SDS011;1433;49.976;8.342;2023-02-15T03:30:35;44.60;;;29.37;;
2850;SDS011;1433;49.976;8.342;2023-02-15T03:33:05;50.13;;;31.37;;
2850;SDS011;1433;49.976;8.342;2023-02-15T03:35:42;48.93;;;33.97;;
2850;SDS011;1433;49.976;8.342;2023-02-15T03:38:36;44.73;;;31.17;;
2850;SDS011;1433;49.976;8.342;2023-02-15T03:41:08;48.17;;;30.30;;
2850;SDS011;1433;49.976;8.342;2023-02-15T03:46:26;48.37;;;32.43;;
2850;SDS011;1433;49.976;8.342;2023-02-15T03:49:10;51.90;;;32.40;;
2850;SDS011;1433;49.976;8.342;2023-02-15T03:51:43;52.03;;;33.43;;
2850;SDS011;1433;49.976;8.342;2023-02-15T03:54:15;43.70;;;31.37;;
2850;SDS011;1433;49.976;8.342;2023-02-15T03:56:48;53.43;;;34.00;;
2850;SDS011;1433;49.976;8.342;2023-02-15T03:59:16;49.03;;;33.50;;
2850;SDS011;1433;49.976;8.342;2023-02-15T04:01:49;55.53;;;35.37;;
2850;SDS011;1433;49.976;8.342;2023-02-15T04:04:38;57.33;;;33.50;;
2850;SDS011;1433;49.976;8.342;2023-02-15T04:07:09;52.97;;;34.03;;
2850;SDS011;1433;49.976;8.342;2023-02-15T04:09:35;46.57;;;32.63;;
2850;SDS011;1433;49.976;8.342;2023-02-15T04:12:20;47.93;;;31.97;;
2850;SDS011;1433;49.976;8.342;2023-02-15T04:14:46;52.20;;;34.00;;
2850;SDS011;1433;49.976;8.342;2023-02-15T04:17:31;43.57;;;30.20;;
2850;SDS011;1433;49.976;8.342;2023-02-15T04:19:57;50.53;;;33.80;;
2850;SDS011;1433;49.976;8.342;2023-02-15T04:22:42;49.47;;;34.27;;
2850;SDS011;1433;49.976;8.342;2023-02-15T04:25:27;52.00;;;33.20;;
2850;SDS011;1433;49.976;8.342;2023-02-15T04:27:53;42.70;;;30.60;;
2850;SDS011;1433;49.976;8.342;2023-02-15T04:30:21;45.53;;;29.47;;
2850;SDS011;1433;49.976;8.342;2023-02-15T04:32:50;52.80;;;34.60;;
2850;SDS011;1433;49.976;8.342;2023-02-15T04:35:17;49.43;;;32.13;;
2850;SDS011;1433;49.976;8.342;2023-02-15T04:37:43;55.90;;;34.90;;
2850;SDS011;1433;49.976;8.342;2023-02-15T04:40:11;46.10;;;30.20;;
2850;SDS011;1433;49.976;8.342;2023-02-15T04:42:39;52.20;;;32.17;;
2850;SDS011;1433;49.976;8.342;2023-02-15T04:45:06;53.53;;;33.50;;
2850;SDS011;1433;49.976;8.342;2023-02-15T04:47:33;52.10;;;36.20;;
2850;SDS011;1433;49.976;8.342;2023-02-15T04:50:00;51.17;;;30.77;;
2850;SDS011;1433;49.976;8.342;2023-02-15T04:52:26;51.00;;;33.10;;
2850;SDS011;1433;49.976;8.342;2023-02-15T04:54:52;45.43;;;29.67;;
2850;SDS011;1433;49.976;8.342;2023-02-15T04:57:18;46.97;;;30.33;;
2850;SDS011;1433;49.976;8.342;2023-02-15T04:59:44;51.77;;;32.13;;
2850;SDS011;1433;49.976;8.342;2023-02-15T05:02:11;51.00;;;30.93;;
2850;SDS011;1433;49.976;8.342;2023-02-15T05:04:37;43.13;;;28.03;;
2850;SDS011;1433;49.976;8.342;2023-02-15T05:07:03;63.77;;;32.77;;
2850;SDS011;1433;49.976;8.342;2023-02-15T05:09:30;54.97;;;32.87;;
2850;SDS011;1433;49.976;8.342;2023-02-15T05:11:56;45.97;;;32.20;;
2850;SDS011;1433;49.976;8.342;2023-02-15T05:14:22;46.33;;;28.87;;
2850;SDS011;1433;49.976;8.342;2023-02-15T05:16:48;63.10;;;33.97;;
2850;SDS011;1433;49.976;8.342;2023-02-15T05:19:15;52.83;;;32.13;;
2850;SDS011;1433;49.976;8.342;2023-02-15T05:21:41;106.07;;;35.77;;
2850;SDS011;1433;49.976;8.342;2023-02-15T05:24:07;167.13;;;59.03;;
2850;SDS011;1433;49.976;8.342;2023-02-15T05:26:52;66.87;;;34.17;;
2850;SDS011;1433;49.976;8.342;2023-02-15T05:29:37;59.50;;;29.17;;
2850;SDS011;1433;49.976;8.342;2023-02-15T05:32:03;46.57;;;28.50;;
2850;SDS011;1433;49.976;8.342;2023-02-15T05:34:29;44.87;;;30.53;;
2850;SDS011;1433;49.976;8.342;2023-02-15T05:36:56;150.33;;;43.93;;
2850;SDS011;1433;49.976;8.342;2023-02-15T05:39:22;72.63;;;34.70;;
2850;SDS011;1433;49.976;8.342;2023-02-15T05:41:48;76.83;;;39.10;;
2850;SDS011;1433;49.976;8.342;2023-02-15T05:44:14;49.40;;;31.67;;
2850;SDS011;1433;49.976;8.342;2023-02-15T05:46:41;47.93;;;29.97;;
2850;SDS011;1433;49.976;8.342;2023-02-15T05:49:07;56.97;;;30.77;;
2850;SDS011;1433;49.976;8.342;2023-02-15T05:51:33;51.80;;;32.83;;
2850;SDS011;1433;49.976;8.342;2023-02-15T05:53:59;55.43;;;34.57;;
2850;SDS011;1433;49.976;8.342;2023-02-15T05:56:25;49.60;;;31.67;;
2850;SDS011;1433;49.976;8.342;2023-02-15T05:58:52;45.63;;;31.53;;
2850;SDS011;1433;49.976;8.342;2023-02-15T06:01:19;39.03;;;27.50;;
2850;SDS011;1433;49.976;8.342;2023-02-15T06:03:47;44.27;;;29.70;;
2850;SDS011;1433;49.976;8.342;2023-02-15T06:06:14;51.10;;;29.57;;
2850;SDS011;1433;49.976;8.342;2023-02-15T06:08:40;49.63;;;29.90;;
2850;SDS011;1433;49.976;8.342;2023-02-15T06:11:07;49.17;;;30.80;;
2850;SDS011;1433;49.976;8.342;2023-02-15T06:13:34;43.83;;;29.00;;
2850;SDS011;1433;49.976;8.342;2023-02-15T06:16:01;48.23;;;27.90;;
2850;SDS011;1433;49.976;8.342;2023-02-15T06:18:27;46.97;;;30.83;;
2850;SDS011;1433;49.976;8.342;2023-02-15T06:20:53;66.27;;;32.10;;
2850;SDS011;1433;49.976;8.342;2023-02-15T06:23:19;62.43;;;36.90;;
2850;SDS011;1433;49.976;8.342;2023-02-15T06:25:47;52.20;;;32.70;;
2850;SDS011;1433;49.976;8.342;2023-02-15T06:28:13;50.03;;;30.37;;
2850;SDS011;1433;49.976;8.342;2023-02-15T06:30:40;48.57;;;32.10;;
2850;SDS011;1433;49.976;8.342;2023-02-15T06:33:06;47.60;;;32.33;;
2850;SDS011;1433;49.976;8.342;2023-02-15T06:35:32;46.67;;;29.67;;
2850;SDS011;1433;49.976;8.342;2023-02-15T06:37:59;53.03;;;32.80;;
2850;SDS011;1433;49.976;8.342;2023-02-15T06:40:25;56.87;;;32.00;;
2850;SDS011;1433;49.976;8.342;2023-02-15T06:42:51;41.50;;;30.73;;
2850;SDS011;1433;49.976;8.342;2023-02-15T06:45:18;68.70;;;32.17;;
2850;SDS011;1433;49.976;8.342;2023-02-15T06:47:44;56.77;;;33.10;;
2850;SDS011;1433;49.976;8.342;2023-02-15T06:50:10;60.57;;;33.80;;
2850;SDS011;1433;49.976;8.342;2023-02-15T06:52:38;51.33;;;33.17;;
2850;SDS011;1433;49.976;8.342;2023-02-15T06:55:04;49.20;;;32.00;;
2850;SDS011;1433;49.976;8.342;2023-02-15T06:57:31;55.93;;;33.53;;
2850;SDS011;1433;49.976;8.342;2023-02-15T06:59:58;50.90;;;31.53;;
2850;SDS011;1433;49.976;8.342;2023-02-15T07:02:25;38.57;;;26.00;;
2850;SDS011;1433;49.976;8.342;2023-02-15T07:04:51;37.10;;;27.00;;
2850;SDS011;1433;49.976;8.342;2023-02-15T07:07:17;44.10;;;28.90;;
2850;SDS011;1433;49.976;8.342;2023-02-15T07:09:44;38.90;;;26.27;;
2850;SDS011;1433;49.976;8.342;2023-02-15T07:12:10;30.90;;;22.10;;
2850;SDS011;1433;49.976;8.342;2023-02-15T07:14:55;35.33;;;24.83;;
2850;SDS011;1433;49.976;8.342;2023-02-15T07:17:21;52.33;;;27.40;;
2850;SDS011;1433;49.976;8.342;2023-02-15T07:19:47;38.90;;;24.77;;
2850;SDS011;1433;49.976;8.342;2023-02-15T07:22:14;39.40;;;25.67;;
2850;SDS011;1433;49.976;8.342;2023-02-15T07:24:40;38.70;;;24.60;;
2850;SDS011;1433;49.976;8.342;2023-02-15T07:27:07;42.23;;;25.90;;
2850;SDS011;1433;49.976;8.342;2023-02-15T07:29:33;41.93;;;29.00;;
2850;SDS011;1433;49.976;8.342;2023-02-15T07:31:59;50.07;;;30.23;;
2850;SDS011;1433;49.976;8.342;2023-02-15T07:34:26;41.43;;;29.23;;
2850;SDS011;1433;49.976;8.342;2023-02-15T07:36:52;42.20;;;28.80;;
2850;SDS011;1433;49.976;8.342;2023-02-15T07:39:19;57.40;;;35.33;;
2850;SDS011;1433;49.976;8.342;2023-02-15T07:41:46;37.27;;;26.93;;
2850;SDS011;1433;49.976;8.342;2023-02-15T07:44:13;44.57;;;27.60;;
2850;SDS011;1433;49.976;8.342;2023-02-15T07:46:40;40.80;;;25.80;;
2850;SDS011;1433;49.976;8.342;2023-02-15T07:49:07;36.27;;;24.27;;
2850;SDS011;1433;49.976;8.342;2023-02-15T07:51:33;35.33;;;25.90;;
2850;SDS011;1433;49.976;8.342;2023-02-15T07:54:00;31.43;;;22.63;;
2850;SDS011;1433;49.976;8.342;2023-02-15T07:56:26;33.43;;;22.03;;
2850;SDS011;1433;49.976;8.342;2023-02-15T07:58:52;28.97;;;19.27;;
2850;SDS011;1433;49.976;8.342;2023-02-15T08:01:19;28.47;;;19.93;;
2850;SDS011;1433;49.976;8.342;2023-02-15T08:03:52;30.83;;;20.07;;
2850;SDS011;1433;49.976;8.342;2023-02-15T08:06:20;28.57;;;21.40;;
2850;SDS011;1433;49.976;8.342;2023-02-15T08:08:48;34.47;;;21.90;;
2850;SDS011;1433;49.976;8.342;2023-02-15T08:11:16;25.60;;;19.47;;
2850;SDS011;1433;49.976;8.342;2023-02-15T08:13:57;28.07;;;17.73;;
2850;SDS011;1433;49.976;8.342;2023-02-15T08:19:29;31.20;;;20.03;;
2850;SDS011;1433;49.976;8.342;2023-02-15T08:21:45;27.73;;;21.00;;
2850;SDS011;1433;49.976;8.342;2023-02-15T08:24:18;30.93;;;20.70;;
2850;SDS011;1433;49.976;8.342;2023-02-15T08:26:47;31.63;;;19.83;;
2850;SDS011;1433;49.976;8.342;2023-02-15T08:29:16;32.07;;;22.50;;
2850;SDS011;1433;49.976;8.342;2023-02-15T08:31:45;32.83;;;22.33;;
2850;SDS011;1433;49.976;8.342;2023-02-15T08:34:14;31.53;;;23.10;;
2850;SDS011;1433;49.976;8.342;2023-02-15T08:36:43;35.00;;;21.83;;
2850;SDS011;1433;49.976;8.342;2023-02-15T08:39:14;32.77;;;22.20;;
2850;SDS011;1433;49.976;8.342;2023-02-15T08:41:42;30.67;;;20.90;;
2850;SDS011;1433;49.976;8.342;2023-02-15T08:44:11;29.20;;;21.10;;
2850;SDS011;1433;49.976;8.342;2023-02-15T08:46:39;32.77;;;21.33;;
2850;SDS011;1433;49.976;8.342;2023-02-15T08:49:09;28.07;;;22.10;;
2850;SDS011;1433;49.976;8.342;2023-02-15T08:51:38;32.03;;;20.83;;
2850;SDS011;1433;49.976;8.342;2023-02-15T08:54:06;33.80;;;22.87;;
2850;SDS011;1433;49.976;8.342;2023-02-15T08:56:37;34.97;;;22.57;;
2850;SDS011;1433;49.976;8.342;2023-02-15T08:59:07;31.63;;;20.70;;
2850;SDS011;1433;49.976;8.342;2023-02-15T09:01:41;36.23;;;21.07;;
2850;SDS011;1433;49.976;8.342;2023-02-15T09:04:07;29.63;;;20.90;;
2850;SDS011;1433;49.976;8.342;2023-02-15T09:06:36;28.87;;;21.00;;
2850;SDS011;1433;49.976;8.342;2023-02-15T09:09:03;34.97;;;22.07;;
2850;SDS011;1433;49.976;8.342;2023-02-15T09:11:32;31.43;;;22.80;;
2850;SDS011;1433;49.976;8.342;2023-02-15T09:14:03;28.03;;;20.73;;
2850;SDS011;1433;49.976;8.342;2023-02-15T09:16:35;29.30;;;21.20;;
2850;SDS011;1433;49.976;8.342;2023-02-15T09:19:03;33.43;;;23.20;;
2850;SDS011;1433;49.976;8.342;2023-02-15T09:21:31;32.60;;;23.83;;
2850;SDS011;1433;49.976;8.342;2023-02-15T09:24:01;38.10;;;25.77;;
2850;SDS011;1433;49.976;8.342;2023-02-15T09:26:31;33.73;;;24.77;;
2850;SDS011;1433;49.976;8.342;2023-02-15T09:29:00;39.60;;;24.10;;
2850;SDS011;1433;49.976;8.342;2023-02-15T09:31:30;36.00;;;25.80;;
2850;SDS011;1433;49.976;8.342;2023-02-15T09:33:59;38.40;;;27.80;;
2850;SDS011;1433;49.976;8.342;2023-02-15T09:36:34;47.53;;;27.83;;
2850;SDS011;1433;49.976;8.342;2023-02-15T09:39:12;40.87;;;26.30;;
2850;SDS011;1433;49.976;8.342;2023-02-15T09:44:37;34.20;;;25.10;;
2850;SDS011;1433;49.976;8.342;2023-02-15T09:56:14;38.17;;;25.03;;
2850;SDS011;1433;49.976;8.342;2023-02-15T09:59:24;38.33;;;26.80;;
2850;SDS011;1433;49.976;8.342;2023-02-15T10:02:04;36.47;;;24.10;;
2850;SDS011;1433;49.976;8.342;2023-02-15T10:05:04;30.93;;;24.20;;
2850;SDS011;1433;49.976;8.342;2023-02-15T10:14:11;39.60;;;27.80;;
2850;SDS011;1433;49.976;8.342;2023-02-15T10:26:18;34.00;;;24.40;;
2850;SDS011;1433;49.976;8.342;2023-02-15T10:28:52;34.37;;;24.20;;
2850;SDS011;1433;49.976;8.342;2023-02-15T10:34:18;34.27;;;24.90;;
2850;SDS011;1433;49.976;8.342;2023-02-15T10:48:22;34.60;;;25.00;;
2850;SDS011;1433;49.976;8.342;2023-02-15T10:51:08;34.90;;;24.27;;
2850;SDS011;1433;49.976;8.342;2023-02-15T11:07:30;40.33;;;28.40;;
2850;SDS011;1433;49.976;8.342;2023-02-15T11:10:21;47.67;;;28.37;;
2850;SDS011;1433;49.976;8.342;2023-02-15T11:12:56;40.90;;;26.83;;
2850;SDS011;1433;49.976;8.342;2023-02-15T11:18:08;46.67;;;27.10;;
2850;SDS011;1433;49.976;8.342;2023-02-15T11:20:45;42.93;;;27.70;;
2850;SDS011;1433;49.976;8.342;2023-02-15T11:23:17;32.30;;;25.50;;
2850;SDS011;1433;49.976;8.342;2023-02-15T11:26:03;40.27;;;27.03;;
2850;SDS011;1433;49.976;8.342;2023-02-15T11:28:27;39.93;;;26.40;;
2850;SDS011;1433;49.976;8.342;2023-02-15T11:31:01;35.73;;;25.23;;
2850;SDS011;1433;49.976;8.342;2023-02-15T11:33:38;35.90;;;27.00;;
2850;SDS011;1433;49.976;8.342;2023-02-15T11:36:10;37.80;;;26.00;;
2850;SDS011;1433;49.976;8.342;2023-02-15T11:38:57;31.37;;;24.70;;
2850;SDS011;1433;49.976;8.342;2023-02-15T11:41:31;38.00;;;26.07;;
2850;SDS011;1433;49.976;8.342;2023-02-15T11:46:51;35.63;;;25.50;;
2850;SDS011;1433;49.976;8.342;2023-02-15T11:49:29;34.83;;;26.40;;
2850;SDS011;1433;49.976;8.342;2023-02-15T11:51:58;36.67;;;28.33;;
2850;SDS011;1433;49.976;8.342;2023-02-15T11:54:31;37.00;;;26.67;;
2850;SDS011;1433;49.976;8.342;2023-02-15T11:57:10;37.87;;;25.97;;
2850;SDS011;1433;49.976;8.342;2023-02-15T11:59:40;39.17;;;28.77;;
2850;SDS011;1433;49.976;8.342;2023-02-15T12:02:19;42.20;;;30.07;;
2850;SDS011;1433;49.976;8.342;2023-02-15T12:04:55;44.03;;;31.50;;
2850;SDS011;1433;49.976;8.342;2023-02-15T12:07:28;42.67;;;29.67;;
2850;SDS011;1433;49.976;8.342;2023-02-15T12:10:10;39.50;;;28.53;;
2850;SDS011;1433;49.976;8.342;2023-02-15T12:13:12;40.50;;;30.20;;
2850;SDS011;1433;49.976;8.342;2023-02-15T12:15:48;43.63;;;29.43;;
2850;SDS011;1433;49.976;8.342;2023-02-15T12:18:37;39.07;;;29.73;;
2850;SDS011;1433;49.976;8.342;2023-02-15T12:21:14;41.87;;;29.67;;
2850;SDS011;1433;49.976;8.342;2023-02-15T12:27:13;43.20;;;31.80;;
2850;SDS011;1433;49.976;8.342;2023-02-15T12:32:34;36.07;;;27.63;;
2850;SDS011;1433;49.976;8.342;2023-02-15T12:35:09;34.43;;;28.03;;
2850;SDS011;1433;49.976;8.342;2023-02-15T12:37:53;39.40;;;30.13;;
2850;SDS011;1433;49.976;8.342;2023-02-15T12:40:24;38.13;;;28.27;;
2850;SDS011;1433;49.976;8.342;2023-02-15T12:42:54;40.10;;;29.93;;
2850;SDS011;1433;49.976;8.342;2023-02-15T12:45:29;38.00;;;30.10;;
2850;SDS011;1433;49.976;8.342;2023-02-15T12:48:08;42.50;;;31.60;;
2850;SDS011;1433;49.976;8.342;2023-02-15T12:50:47;41.37;;;31.67;;
2850;SDS011;1433;49.976;8.342;2023-02-15T12:53:29;36.70;;;29.50;;
2850;SDS011;1433;49.976;8.342;2023-02-15T12:56:05;30.10;;;25.53;;
2850;SDS011;1433;49.976;8.342;2023-02-15T12:58:31;28.47;;;24.27;;
2850;SDS011;1433;49.976;8.342;2023-02-15T13:01:14;31.67;;;22.40;;
2850;SDS011;1433;49.976;8.342;2023-02-15T13:06:35;34.73;;;28.07;;
2850;SDS011;1433;49.976;8.342;2023-02-15T13:09:07;38.30;;;29.03;;
2850;SDS011;1433;49.976;8.342;2023-02-15T13:11:53;39.90;;;31.03;;
2850;SDS011;1433;49.976;8.342;2023-02-15T13:14:21;45.47;;;31.57;;
2850;SDS011;1433;49.976;8.342;2023-02-15T13:17:00;34.20;;;29.40;;
2850;SDS011;1433;49.976;8.342;2023-02-15T13:19:42;32.97;;;26.90;;
2850;SDS011;1433;49.976;8.342;2023-02-15T13:22:16;33.27;;;28.20;;
2850;SDS011;1433;49.976;8.342;2023-02-15T13:24:58;35.57;;;27.60;;
2850;SDS011;1433;49.976;8.342;2023-02-15T13:27:32;33.50;;;28.07;;
2850;SDS011;1433;49.976;8.342;2023-02-15T13:30:25;37.87;;;28.97;;
2850;SDS011;1433;49.976;8.342;2023-02-15T13:33:03;37.73;;;27.20;;
2850;SDS011;1433;49.976;8.342;2023-02-15T13:35:36;36.10;;;26.67;;
2850;SDS011;1433;49.976;8.342;2023-02-15T13:38:25;39.87;;;26.90;;
2850;SDS011;1433;49.976;8.342;2023-02-15T13:41:09;34.43;;;29.37;;
2850;SDS011;1433;49.976;8.342;2023-02-15T13:43:54;33.90;;;24.90;;
2850;SDS011;1433;49.976;8.342;2023-02-15T13:47:09;40.90;;;29.80;;
2850;SDS011;1433;49.976;8.342;2023-02-15T14:01:11;32.70;;;29.20;;
2850;SDS011;1433;49.976;8.342;2023-02-15T14:21:10;41.30;;;34.87;;
2850;SDS011;1433;49.976;8.342;2023-02-15T14:29:51;47.13;;;37.50;;
2850;SDS011;1433;49.976;8.342;2023-02-15T14:32:27;43.73;;;35.63;;
2850;SDS011;1433;49.976;8.342;2023-02-15T14:34:59;43.90;;;36.70;;
2850;SDS011;1433;49.976;8.342;2023-02-15T14:49:42;51.53;;;35.93;;
2850;SDS011;1433;49.976;8.342;2023-02-15T14:57:36;41.90;;;33.20;;
2850;SDS011;1433;49.976;8.342;2023-02-15T15:02:13;45.20;;;35.40;;
2850;SDS011;1433;49.976;8.342;2023-02-15T15:07:59;45.90;;;33.50;;
2850;SDS011;1433;49.976;8.342;2023-02-15T15:10:33;39.70;;;31.80;;
2850;SDS011;1433;49.976;8.342;2023-02-15T15:16:23;42.83;;;33.47;;
2850;SDS011;1433;49.976;8.342;2023-02-15T15:18:49;40.20;;;33.60;;
2850;SDS011;1433;49.976;8.342;2023-02-15T15:35:35;40.53;;;32.53;;
2850;SDS011;1433;49.976;8.342;2023-02-15T15:50:22;43.53;;;33.30;;
2850;SDS011;1433;49.976;8.342;2023-02-15T15:52:56;46.07;;;36.27;;
2850;SDS011;1433;49.976;8.342;2023-02-15T15:55:25;43.23;;;34.80;;
2850;SDS011;1433;49.976;8.342;2023-02-15T15:57:56;40.17;;;32.10;;
2850;SDS011;1433;49.976;8.342;2023-02-15T16:03:13;39.03;;;31.13;;
2850;SDS011;1433;49.976;8.342;2023-02-15T16:05:43;42.83;;;32.63;;
2850;SDS011;1433;49.976;8.342;2023-02-15T16:08:09;44.77;;;33.70;;
2850;SDS011;1433;49.976;8.342;2023-02-15T16:10:35;43.33;;;33.40;;
2850;SDS011;1433;49.976;8.342;2023-02-15T16:13:04;37.27;;;29.27;;
2850;SDS011;1433;49.976;8.342;2023-02-15T16:18:22;41.00;;;33.20;;
2850;SDS011;1433;49.976;8.342;2023-02-15T16:20:53;35.77;;;28.73;;
2850;SDS011;1433;49.976;8.342;2023-02-15T16:29:17;46.77;;;34.23;;
2850;SDS011;1433;49.976;8.342;2023-02-15T16:32:00;39.23;;;30.87;;
2850;SDS011;1433;49.976;8.342;2023-02-15T16:34:33;42.80;;;31.37;;
2850;SDS011;1433;49.976;8.342;2023-02-15T16:37:12;42.90;;;32.60;;
2850;SDS011;1433;49.976;8.342;2023-02-15T16:39:41;47.90;;;36.57;;
2850;SDS011;1433;49.976;8.342;2023-02-15T16:42:11;53.73;;;40.47;;
2850;SDS011;1433;49.976;8.342;2023-02-15T16:44:39;58.43;;;37.80;;
2850;SDS011;1433;49.976;8.342;2023-02-15T16:47:09;49.47;;;38.00;;
2850;SDS011;1433;49.976;8.342;2023-02-15T16:49:50;52.17;;;37.60;;
2850;SDS011;1433;49.976;8.342;2023-02-15T16:52:23;47.00;;;37.20;;
2850;SDS011;1433;49.976;8.342;2023-02-15T16:54:51;56.13;;;39.10;;
2850;SDS011;1433;49.976;8.342;2023-02-15T16:57:25;46.10;;;36.30;;
2850;SDS011;1433;49.976;8.342;2023-02-15T17:00:04;52.97;;;37.73;;
2850;SDS011;1433;49.976;8.342;2023-02-15T17:02:33;53.17;;;41.63;;
2850;SDS011;1433;49.976;8.342;2023-02-15T17:05:03;55.93;;;40.73;;
2850;SDS011;1433;49.976;8.342;2023-02-15T17:07:39;50.87;;;38.37;;
2850;SDS011;1433;49.976;8.342;2023-02-15T17:10:32;49.03;;;37.17;;
2850;SDS011;1433;49.976;8.342;2023-02-15T17:13:09;49.20;;;37.50;;
2850;SDS011;1433;49.976;8.342;2023-02-15T17:15:40;54.63;;;40.73;;
2850;SDS011;1433;49.976;8.342;2023-02-15T17:18:19;56.73;;;40.50;;
2850;SDS011;1433;49.976;8.342;2023-02-15T17:20:49;59.00;;;43.63;;
2850;SDS011;1433;49.976;8.342;2023-02-15T17:25:58;51.90;;;42.37;;
2850;SDS011;1433;49.976;8.342;2023-02-15T17:28:29;52.50;;;39.03;;
2850;SDS011;1433;49.976;8.342;2023-02-15T17:30:57;55.17;;;41.27;;
2850;SDS011;1433;49.976;8.342;2023-02-15T17:33:25;53.57;;;39.30;;
2850;SDS011;1433;49.976;8.342;2023-02-15T17:38:37;57.73;;;44.13;;
2850;SDS011;1433;49.976;8.342;2023-02-15T17:41:05;66.80;;;45.60;;
2850;SDS011;1433;49.976;8.342;2023-02-15T17:43:32;63.13;;;47.23;;
2850;SDS011;1433;49.976;8.342;2023-02-15T17:45:59;63.33;;;45.87;;
2850;SDS011;1433;49.976;8.342;2023-02-15T17:51:02;64.53;;;44.90;;
2850;SDS011;1433;49.976;8.342;2023-02-15T17:53:30;64.67;;;46.77;;
2850;SDS011;1433;49.976;8.342;2023-02-15T17:55:57;73.27;;;47.80;;
2850;SDS011;1433;49.976;8.342;2023-02-15T17:58:23;69.13;;;50.27;;
2850;SDS011;1433;49.976;8.342;2023-02-15T18:00:51;70.70;;;49.20;;
2850;SDS011;1433;49.976;8.342;2023-02-15T18:06:28;68.67;;;49.17;;
2850;SDS011;1433;49.976;8.342;2023-02-15T18:09:14;69.77;;;46.63;;
2850;SDS011;1433;49.976;8.342;2023-02-15T18:12:02;68.00;;;48.70;;
2850;SDS011;1433;49.976;8.342;2023-02-15T18:14:52;64.70;;;47.27;;
2850;SDS011;1433;49.976;8.342;2023-02-15T18:17:27;63.70;;;45.13;;
2850;SDS011;1433;49.976;8.342;2023-02-15T18:20:32;68.50;;;45.37;;
2850;SDS011;1433;49.976;8.342;2023-02-15T18:22:46;70.13;;;46.27;;
2850;SDS011;1433;49.976;8.342;2023-02-15T18:25:13;80.90;;;52.90;;
2850;SDS011;1433;49.976;8.342;2023-02-15T18:27:43;70.17;;;47.30;;
2850;SDS011;1433;49.976;8.342;2023-02-15T18:30:20;80.00;;;52.13;;
2850;SDS011;1433;49.976;8.342;2023-02-15T18:32:50;80.83;;;50.53;;
2850;SDS011;1433;49.976;8.342;2023-02-15T18:35:21;79.87;;;50.23;;
2850;SDS011;1433;49.976;8.342;2023-02-15T18:37:51;65.73;;;47.30;;
2850;SDS011;1433;49.976;8.342;2023-02-15T18:40:18;68.17;;;48.97;;
2850;SDS011;1433;49.976;8.342;2023-02-15T18:42:48;69.67;;;49.83;;
2850;SDS011;1433;49.976;8.342;2023-02-15T18:45:16;69.80;;;46.80;;
2850;SDS011;1433;49.976;8.342;2023-02-15T18:47:49;82.23;;;51.60;;
2850;SDS011;1433;49.976;8.342;2023-02-15T18:50:17;75.10;;;49.60;;
2850;SDS011;1433;49.976;8.342;2023-02-15T18:52:46;83.43;;;52.60;;